Time;durP1;ratioP1;P1;durP2;ratioP2;P2;SDS_P1;SDS_P2;PMS_P1;PMS_P2;Temp;Humidity;BMP_temperature;BMP_pressure;BME280_temperature;BME280_humidity;BME280_pressure;Samples;Min_cycle;Max_cycle;Signal;HPM_P1;HPM_P2
2022/12/09 02:30:22;;;;;;;;;;;19.30;48.50;;;;;;5069661;28;19977;-66
2022/12/09 02:32:52;;;;;;;;;;;19.10;48.80;;;;;;5069285;28;20404;-67
2022/12/09 02:35:20;;;;;;;;;;;19.20;49.00;;;;;;5086943;28;19916;-67
2022/12/09 02:38:00;;;;;;;;;;;19.20;49.60;;;;;;5085797;28;19987;-66
2022/12/09 02:40:28;;;;;;;;;;;19.20;50.20;;;;;;5090081;28;19940;-67
2022/12/09 02:42:55;;;;;;;;;;;19.30;49.90;;;;;;5062609;28;20298;-66
2022/12/09 02:45:22;;;;;;;;;;;19.20;48.90;;;;;;5083728;28;19908;-67
2022/12/09 02:47:49;;;;;;;;;;;19.20;49.90;;;;;;5049132;28;19909;-66
2022/12/09 02:50:17;;;;;;;;;;;19.20;48.90;;;;;;5056719;28;19975;-67
2022/12/09 02:52:43;;;;;;;;;;;19.10;48.80;;;;;;5088959;28;19947;-66
2022/12/09 02:55:10;;;;;;;;;;;19.20;48.80;;;;;;5056468;28;19921;-66
2022/12/09 02:57:37;;;;;;;;;;;19.20;49.80;;;;;;5075232;28;19912;-66
2022/12/09 03:00:04;;;;;;;;;;;19.30;50.60;;;;;;5075519;28;19912;-66
2022/12/09 03:02:38;;;;;;;;;;;19.30;50.00;;;;;;5093342;28;19958;-66
2022/12/09 03:05:05;;;;;;;;;;;19.20;49.00;;;;;;5093419;28;20314;-66
2022/12/09 03:07:51;;;;;;;;;;;19.10;49.90;;;;;;5093264;28;19960;-67
2022/12/09 03:10:28;;;;;;;;;;;19.20;50.40;;;;;;5092659;28;19915;-66
2022/12/09 03:13:02;;;;;;;;;;;19.20;49.70;;;;;;5075484;28;19998;-66
2022/12/09 03:15:29;;;;;;;;;;;19.20;49.40;;;;;;5093127;28;20062;-66
2022/12/09 03:17:56;;;;;;;;;;;19.20;48.70;;;;;;5075273;28;19912;-66
2022/12/09 03:20:24;;;;;;;;;;;19.10;49.00;;;;;;5074963;28;19912;-66
2022/12/09 03:22:50;;;;;;;;;;;19.10;50.50;;;;;;5060965;28;20003;-67
2022/12/09 03:25:18;;;;;;;;;;;19.10;51.10;;;;;;5075382;28;19961;-66
2022/12/09 03:28:01;;;;;;;;;;;19.20;50.00;;;;;;5075394;28;19912;-67
2022/12/09 03:30:29;;;;;;;;;;;19.20;50.00;;;;;;5074798;28;19920;-66
2022/12/09 03:32:55;;;;;;;;;;;19.30;49.50;;;;;;5075110;28;19931;-67
2022/12/09 03:35:26;;;;;;;;;;;19.20;49.80;;;;;;5075047;28;19917;-66
2022/12/09 03:37:52;;;;;;;;;;;19.20;50.30;;;;;;5057510;28;20440;-66
2022/12/09 03:40:22;;;;;;;;;;;19.30;49.00;;;;;;5054643;28;19999;-67
2022/12/09 03:42:50;;;;;;;;;;;19.20;50.60;;;;;;5054618;28;19998;-67
2022/12/09 03:45:16;;;;;;;;;;;19.20;49.80;;;;;;5090013;28;20270;-67
2022/12/09 03:47:43;;;;;;;;;;;19.20;51.50;;;;;;5074787;28;20437;-67
2022/12/09 03:50:10;;;;;;;;;;;19.20;49.60;;;;;;5074491;28;20280;-67
2022/12/09 03:52:45;;;;;;;;;;;19.20;49.90;;;;;;5092705;28;19912;-67
2022/12/09 03:55:18;;;;;;;;;;;19.10;50.50;;;;;;5092300;28;20374;-66
2022/12/09 03:57:44;;;;;;;;;;;19.00;49.10;;;;;;5092780;28;19912;-66
2022/12/09 04:00:11;;;;;;;;;;;19.00;50.40;;;;;;5074450;28;19912;-66
2022/12/09 04:02:38;;;;;;;;;;;19.10;50.50;;;;;;5074600;28;19987;-67
2022/12/09 04:05:04;;;;;;;;;;;19.10;49.90;;;;;;5092529;28;19907;-66
2022/12/09 04:07:31;;;;;;;;;;;19.10;48.40;;;;;;5091980;28;20405;-66
2022/12/09 04:09:58;;;;;;;;;;;19.10;49.30;;;;;;5092095;28;19912;-66
2022/12/09 04:12:24;;;;;;;;;;;19.20;48.10;;;;;;5092109;28;19919;-66
2022/12/09 04:14:51;;;;;;;;;;;19.20;47.70;;;;;;5092395;28;20412;-67
2022/12/09 04:17:17;;;;;;;;;;;19.10;48.10;;;;;;5092143;28;19908;-66
2022/12/09 04:19:44;;;;;;;;;;;19.10;48.40;;;;;;5091925;28;19999;-67
2022/12/09 04:22:10;;;;;;;;;;;19.10;47.90;;;;;;5092227;28;20392;-66
2022/12/09 04:24:37;;;;;;;;;;;19.10;47.50;;;;;;5092194;28;19908;-67
2022/12/09 04:27:04;;;;;;;;;;;19.20;47.90;;;;;;5092338;28;19919;-67
2022/12/09 04:29:30;;;;;;;;;;;19.30;48.80;;;;;;5092243;28;19916;-66
2022/12/09 04:31:57;;;;;;;;;;;19.30;47.90;;;;;;5079837;28;19999;-66
2022/12/09 04:34:23;;;;;;;;;;;19.30;48.30;;;;;;5091501;28;20423;-66
2022/12/09 04:36:50;;;;;;;;;;;19.30;49.20;;;;;;5091300;28;19939;-66
2022/12/09 04:39:18;;;;;;;;;;;19.30;47.20;;;;;;5092024;28;19908;-67
2022/12/09 04:41:45;;;;;;;;;;;19.20;47.30;;;;;;5091546;28;20247;-67
2022/12/09 04:44:11;;;;;;;;;;;19.10;47.60;;;;;;5092058;28;19908;-66
2022/12/09 04:46:38;;;;;;;;;;;19.20;48.70;;;;;;5091906;28;19908;-65
2022/12/09 04:49:04;;;;;;;;;;;19.20;47.80;;;;;;5073460;28;20358;-65
2022/12/09 04:51:31;;;;;;;;;;;19.10;48.10;;;;;;5092012;28;19916;-65
2022/12/09 04:53:57;;;;;;;;;;;19.10;48.30;;;;;;5073388;28;19969;-66
2022/12/09 04:56:24;;;;;;;;;;;19.10;48.10;;;;;;5081333;28;19991;-66
2022/12/09 04:58:51;;;;;;;;;;;19.20;47.80;;;;;;5075894;28;19916;-65
2022/12/09 05:01:18;;;;;;;;;;;19.10;47.90;;;;;;5091790;28;19909;-66
2022/12/09 05:03:51;;;;;;;;;;;19.10;48.20;;;;;;5091548;28;20374;-66
2022/12/09 05:06:18;;;;;;;;;;;19.10;48.90;;;;;;5091615;28;19916;-68
2022/12/09 05:08:45;;;;;;;;;;;19.20;50.40;;;;;;5055460;28;20281;-67
2022/12/09 05:11:15;;;;;;;;;;;19.20;50.10;;;;;;5089858;28;19908;-66
2022/12/09 05:13:41;;;;;;;;;;;19.20;50.10;;;;;;5085480;28;19908;-67
2022/12/09 05:16:09;;;;;;;;;;;19.10;49.50;;;;;;5091423;28;20003;-66
2022/12/09 05:18:36;;;;;;;;;;;19.10;49.30;;;;;;5091934;28;19916;-67
2022/12/09 05:21:09;;;;;;;;;;;19.10;49.70;;;;;;5094870;28;19908;-66
2022/12/09 05:23:36;;;;;;;;;;;19.10;50.10;;;;;;5089799;28;19920;-67
2022/12/09 05:26:03;;;;;;;;;;;19.00;49.40;;;;;;5095032;28;19908;-66
2022/12/09 05:28:30;;;;;;;;;;;19.10;50.50;;;;;;5074585;28;19912;-67
2022/12/09 05:31:00;;;;;;;;;;;18.90;51.40;;;;;;5094663;28;20102;-66
2022/12/09 05:33:27;;;;;;;;;;;18.80;50.60;;;;;;5068727;28;20002;-66
2022/12/09 05:35:54;;;;;;;;;;;18.80;50.30;;;;;;5094348;28;20330;-66
2022/12/09 05:38:21;;;;;;;;;;;18.80;50.90;;;;;;5059754;28;20301;-66
2022/12/09 05:40:47;;;;;;;;;;;18.80;51.60;;;;;;5064824;28;20467;-68
2022/12/09 05:43:14;;;;;;;;;;;19.00;52.60;;;;;;5080360;28;19913;-67
2022/12/09 05:45:41;;;;;;;;;;;18.90;51.20;;;;;;5064472;28;19917;-67
2022/12/09 05:48:07;;;;;;;;;;;18.90;53.10;;;;;;5070499;28;20307;-67
2022/12/09 05:50:34;;;;;;;;;;;18.80;52.70;;;;;;5077626;28;19992;-67
2022/12/09 05:53:00;;;;;;;;;;;18.80;52.10;;;;;;5069731;28;19913;-67
2022/12/09 05:55:27;;;;;;;;;;;18.70;52.50;;;;;;5073766;28;19960;-66
2022/12/09 05:57:54;;;;;;;;;;;18.80;53.80;;;;;;5078078;28;19923;-67
2022/12/09 06:00:21;;;;;;;;;;;18.60;53.30;;;;;;5075595;28;19913;-67
2022/12/09 06:02:47;;;;;;;;;;;18.60;52.60;;;;;;5081237;28;19919;-67
2022/12/09 06:05:14;;;;;;;;;;;18.70;53.10;;;;;;5078651;28;20360;-67
2022/12/09 06:07:41;;;;;;;;;;;18.60;52.20;;;;;;5080163;28;19954;-67
2022/12/09 06:10:07;;;;;;;;;;;18.60;51.60;;;;;;5077614;28;19912;-67
2022/12/09 06:12:34;;;;;;;;;;;18.60;51.70;;;;;;5090904;28;19912;-68
2022/12/09 06:15:00;;;;;;;;;;;18.60;50.70;;;;;;5094561;28;19916;-67
2022/12/09 06:17:27;;;;;;;;;;;18.60;51.60;;;;;;5065289;28;19912;-67
2022/12/09 06:19:54;;;;;;;;;;;18.60;52.40;;;;;;5054463;28;19958;-67
2022/12/09 06:22:20;;;;;;;;;;;18.50;53.20;;;;;;5072684;28;20293;-67
2022/12/09 06:24:47;;;;;;;;;;;18.50;53.40;;;;;;5075387;28;19912;-67
2022/12/09 06:27:13;;;;;;;;;;;18.50;52.70;;;;;;5074835;28;20372;-67
2022/12/09 06:29:40;;;;;;;;;;;18.50;53.50;;;;;;5073011;28;19924;-67
2022/12/09 06:32:07;;;;;;;;;;;18.50;54.10;;;;;;5074685;28;19908;-68
2022/12/09 06:34:33;;;;;;;;;;;18.60;52.80;;;;;;5075578;28;19924;-67
2022/12/09 06:37:00;;;;;;;;;;;18.60;52.30;;;;;;5072519;28;19913;-68
2022/12/09 06:39:27;;;;;;;;;;;18.60;50.40;;;;;;5067926;28;19912;-69
2022/12/09 06:41:53;;;;;;;;;;;18.50;50.60;;;;;;5071721;28;19919;-68
2022/12/09 06:44:20;;;;;;;;;;;18.50;50.80;;;;;;5071158;28;19916;-70
2022/12/09 09:52:42;;;;;;;;;;;18.00;62.40;;;;;;5085401;28;20005;-67
2022/12/09 09:55:17;;;;;;;;;;;18.00;63.20;;;;;;5095971;28;20325;-67
2022/12/09 09:57:51;;;;;;;;;;;17.90;61.90;;;;;;5094137;28;19985;-67
2022/12/09 10:00:21;;;;;;;;;;;17.90;61.10;;;;;;5081321;28;19907;-68
2022/12/09 10:02:53;;;;;;;;;;;17.90;59.40;;;;;;5096432;28;19931;-67
2022/12/09 10:05:30;;;;;;;;;;;17.90;59.80;;;;;;5097554;28;19955;-68
2022/12/09 10:08:14;;;;;;;;;;;17.90;59.20;;;;;;5098164;28;19931;-70
2022/12/09 10:10:59;;;;;;;;;;;18.00;58.40;;;;;;5106125;28;20007;-68
2022/12/09 10:13:48;;;;;;;;;;;17.90;59.10;;;;;;5099197;28;19951;-67
2022/12/09 10:16:21;;;;;;;;;;;17.90;59.70;;;;;;5055877;28;20036;-66
2022/12/09 10:18:50;;;;;;;;;;;17.90;61.30;;;;;;5094187;28;19948;-69
2022/12/09 10:21:17;;;;;;;;;;;17.90;61.70;;;;;;5091122;28;19963;-68
2022/12/09 10:23:44;;;;;;;;;;;18.00;62.20;;;;;;5077879;28;20372;-70
2022/12/09 10:26:15;;;;;;;;;;;17.90;62.10;;;;;;5109429;28;19908;-67
2022/12/09 10:28:42;;;;;;;;;;;17.90;62.90;;;;;;5109984;28;19909;-66
2022/12/09 10:31:09;;;;;;;;;;;18.00;62.80;;;;;;5111697;27;19912;-66
2022/12/09 10:33:37;;;;;;;;;;;18.00;62.60;;;;;;5095314;28;19912;-66
2022/12/09 10:36:04;;;;;;;;;;;18.00;62.40;;;;;;5109334;28;19978;-67
2022/12/09 10:38:30;;;;;;;;;;;17.90;61.90;;;;;;5098999;28;20378;-67
2022/12/09 10:41:09;;;;;;;;;;;17.90;62.30;;;;;;5111395;28;20362;-66
2022/12/09 10:43:37;;;;;;;;;;;17.90;62.00;;;;;;5097048;28;19918;-68
2022/12/09 10:46:04;;;;;;;;;;;18.00;60.80;;;;;;5112476;28;19930;-66
2022/12/09 10:48:30;;;;;;;;;;;18.00;60.70;;;;;;5104141;28;19908;-66
2022/12/09 10:50:58;;;;;;;;;;;18.00;60.80;;;;;;5095093;28;19916;-66
2022/12/09 10:53:25;;;;;;;;;;;18.00;61.00;;;;;;5098435;28;19924;-67
2022/12/09 10:55:52;;;;;;;;;;;18.00;60.20;;;;;;5109550;28;20435;-67
2022/12/09 10:58:19;;;;;;;;;;;18.00;60.40;;;;;;5090194;28;20001;-66
2022/12/09 11:01:06;;;;;;;;;;;17.90;60.50;;;;;;5102536;28;19912;-67
2022/12/09 11:03:40;;;;;;;;;;;17.90;61.10;;;;;;5099959;28;19919;-66
2022/12/09 11:06:15;;;;;;;;;;;18.00;60.60;;;;;;5106080;28;19961;-67
2022/12/09 11:08:47;;;;;;;;;;;18.00;60.90;;;;;;5109140;28;20369;-66
2022/12/09 11:11:14;;;;;;;;;;;17.90;60.10;;;;;;5108582;28;20011;-67
2022/12/09 11:13:41;;;;;;;;;;;17.90;59.80;;;;;;5072644;28;20337;-66
2022/12/09 11:16:08;;;;;;;;;;;17.90;59.10;;;;;;5092473;28;19915;-67
2022/12/09 11:18:36;;;;;;;;;;;17.90;59.40;;;;;;5092626;28;20359;-66
2022/12/09 11:21:04;;;;;;;;;;;17.90;60.00;;;;;;5092593;28;20416;-68
2022/12/09 11:23:31;;;;;;;;;;;17.90;60.30;;;;;;5074617;28;19919;-69
2022/12/09 11:26:04;;;;;;;;;;;17.90;59.90;;;;;;5092992;28;19919;-66
2022/12/09 11:28:35;;;;;;;;;;;17.90;60.10;;;;;;5092912;28;19908;-68
2022/12/09 11:31:01;;;;;;;;;;;17.90;60.50;;;;;;5093053;28;19908;-68
2022/12/09 11:33:32;;;;;;;;;;;17.90;60.50;;;;;;5092662;28;19912;-68
2022/12/09 11:36:08;;;;;;;;;;;17.90;60.30;;;;;;5093093;28;20247;-68
2022/12/09 11:38:40;;;;;;;;;;;17.90;61.30;;;;;;5058605;28;20289;-68
2022/12/09 11:44:11;;;;;;;;;;;17.90;60.40;;;;;;5086811;28;19923;-68
2022/12/09 11:46:38;;;;;;;;;;;17.90;59.30;;;;;;5092629;28;19916;-68
2022/12/09 11:49:15;;;;;;;;;;;17.90;60.00;;;;;;5092911;28;19908;-68
2022/12/09 11:51:43;;;;;;;;;;;17.90;60.10;;;;;;5092681;28;19954;-68
2022/12/09 11:54:10;;;;;;;;;;;17.80;60.30;;;;;;5073921;28;19920;-68
2022/12/09 11:56:37;;;;;;;;;;;17.90;60.50;;;;;;5074930;28;19908;-68
2022/12/09 11:59:14;;;;;;;;;;;17.80;61.10;;;;;;5073547;28;19908;-68
2022/12/09 12:02:04;;;;;;;;;;;17.90;60.40;;;;;;5092209;28;19960;-68
2022/12/09 12:04:35;;;;;;;;;;;17.90;61.10;;;;;;5073553;28;19912;-68
2022/12/09 12:07:25;;;;;;;;;;;17.90;61.60;;;;;;5091225;28;20339;-68
2022/12/09 12:09:58;;;;;;;;;;;17.90;61.80;;;;;;5054703;28;20400;-68
2022/12/09 12:12:36;;;;;;;;;;;17.80;60.50;;;;;;5092651;28;19916;-68
2022/12/09 12:15:13;;;;;;;;;;;17.80;61.00;;;;;;5091904;28;20022;-68
2022/12/09 12:17:46;;;;;;;;;;;17.80;60.90;;;;;;5104614;28;19923;-68
2022/12/09 12:20:13;;;;;;;;;;;17.80;61.40;;;;;;5070098;28;20457;-68
2022/12/09 12:23:18;;;;;;;;;;;17.80;61.30;;;;;;5085712;28;19951;-68
2022/12/09 12:25:44;;;;;;;;;;;17.80;61.00;;;;;;5005146;28;19967;-68
2022/12/09 12:28:11;;;;;;;;;;;17.80;61.50;;;;;;4999391;28;19913;-68
2022/12/09 12:30:49;;;;;;;;;;;17.80;60.90;;;;;;5048659;28;19955;-68
2022/12/09 12:33:24;;;;;;;;;;;17.80;60.20;;;;;;5092180;28;20007;-68
2022/12/09 12:35:54;;;;;;;;;;;17.70;60.70;;;;;;5082123;28;19920;-68
2022/12/09 12:38:41;;;;;;;;;;;17.70;61.20;;;;;;5092105;28;19955;-68
2022/12/09 12:41:13;;;;;;;;;;;17.80;61.90;;;;;;5077582;28;19916;-67
2022/12/09 12:46:43;;;;;;;;;;;17.80;61.10;;;;;;5091856;28;19958;-68
2022/12/09 12:49:21;;;;;;;;;;;17.80;62.40;;;;;;5092215;28;19962;-68
2022/12/09 12:52:14;;;;;;;;;;;17.70;62.00;;;;;;5074083;28;19974;-68
2022/12/09 12:54:44;;;;;;;;;;;17.80;62.90;;;;;;5058660;28;19980;-69
2022/12/09 12:57:16;;;;;;;;;;;17.80;61.80;;;;;;5091723;28;20345;-68
2022/12/09 12:59:49;;;;;;;;;;;17.80;61.10;;;;;;5091888;28;19951;-68
2022/12/09 13:02:35;;;;;;;;;;;17.70;60.90;;;;;;5073613;28;19927;-68
2022/12/09 13:05:25;;;;;;;;;;;17.70;61.50;;;;;;5083974;28;20019;-68
2022/12/09 13:07:56;;;;;;;;;;;17.70;61.60;;;;;;5081350;28;19917;-68
2022/12/09 13:10:34;;;;;;;;;;;17.70;61.60;;;;;;5091591;28;19916;-68
2022/12/09 13:13:01;;;;;;;;;;;17.60;61.50;;;;;;5073445;28;19908;-68
2022/12/09 13:15:32;;;;;;;;;;;17.70;61.70;;;;;;5091566;28;19958;-68
2022/12/09 13:18:00;;;;;;;;;;;17.70;62.40;;;;;;5092041;28;20349;-69
2022/12/09 13:20:33;;;;;;;;;;;17.70;62.20;;;;;;5073473;28;19944;-68
2022/12/09 13:23:00;;;;;;;;;;;17.70;62.60;;;;;;5073821;28;19962;-68
2022/12/09 13:25:29;;;;;;;;;;;17.70;61.00;;;;;;5091544;28;19962;-68
2022/12/09 13:28:10;;;;;;;;;;;17.70;62.30;;;;;;5091657;28;20274;-66
2022/12/09 13:30:43;;;;;;;;;;;17.70;61.30;;;;;;5091184;28;19940;-66
2022/12/09 13:33:19;;;;;;;;;;;17.70;62.10;;;;;;5072208;28;19913;-68
2022/12/09 13:35:46;;;;;;;;;;;17.50;61.60;;;;;;5091290;28;20374;-68
2022/12/09 13:38:25;;;;;;;;;;;17.50;61.90;;;;;;5091129;28;20147;-68
2022/12/09 13:40:52;;;;;;;;;;;17.50;61.80;;;;;;5075119;28;19908;-68
2022/12/09 13:43:28;;;;;;;;;;;17.50;61.80;;;;;;5094916;28;20002;-68
2022/12/09 13:45:58;;;;;;;;;;;17.50;61.70;;;;;;5077346;28;19914;-68
2022/12/09 13:48:25;;;;;;;;;;;17.50;61.90;;;;;;5093771;28;20324;-68
2022/12/09 13:50:54;;;;;;;;;;;17.50;61.30;;;;;;5092197;28;19917;-68
2022/12/09 13:53:23;;;;;;;;;;;17.50;61.80;;;;;;5089122;28;20282;-68
2022/12/09 13:56:00;;;;;;;;;;;17.50;61.30;;;;;;5080461;28;20007;-68
2022/12/09 13:58:41;;;;;;;;;;;17.40;60.60;;;;;;5100171;28;19912;-69
2022/12/09 14:01:11;;;;;;;;;;;17.50;61.10;;;;;;5093138;28;19912;-68
2022/12/09 14:03:57;;;;;;;;;;;17.50;61.10;;;;;;5091232;28;19917;-67
2022/12/09 14:06:31;;;;;;;;;;;17.50;60.30;;;;;;5078800;28;19939;-68
2022/12/09 14:09:00;;;;;;;;;;;17.50;59.50;;;;;;5075393;28;19958;-69
2022/12/09 14:11:45;;;;;;;;;;;17.50;59.80;;;;;;5076606;28;19908;-68
2022/12/09 14:14:24;;;;;;;;;;;17.50;59.60;;;;;;5085186;28;19923;-68
2022/12/09 14:16:51;;;;;;;;;;;17.50;59.20;;;;;;5093915;28;19912;-69
2022/12/09 14:19:24;;;;;;;;;;;17.50;59.80;;;;;;5076267;28;20014;-68
2022/12/09 14:22:14;;;;;;;;;;;17.50;59.90;;;;;;5078707;28;20382;-68
2022/12/09 14:24:41;;;;;;;;;;;17.50;60.40;;;;;;5076322;28;19919;-68
2022/12/09 14:27:08;;;;;;;;;;;17.50;59.70;;;;;;5094594;28;20333;-68
2022/12/09 14:29:43;;;;;;;;;;;17.50;59.50;;;;;;5094311;28;19938;-68
2022/12/09 14:32:19;;;;;;;;;;;17.50;59.80;;;;;;5093202;28;19912;-66
2022/12/09 14:35:03;;;;;;;;;;;17.50;60.20;;;;;;5093238;28;19922;-68
2022/12/09 14:37:32;;;;;;;;;;;17.40;60.60;;;;;;5094268;28;19908;-69
2022/12/09 14:40:02;;;;;;;;;;;17.50;60.60;;;;;;5075945;28;19923;-68
2022/12/09 14:42:49;;;;;;;;;;;17.50;60.40;;;;;;5094363;28;19908;-68
2022/12/09 14:45:16;;;;;;;;;;;17.50;60.30;;;;;;5074598;28;19919;-69
2022/12/09 14:47:46;;;;;;;;;;;17.50;60.50;;;;;;5093911;28;19911;-68
2022/12/09 14:50:22;;;;;;;;;;;17.50;60.90;;;;;;5092440;28;19917;-68
2022/12/09 14:52:59;;;;;;;;;;;17.40;61.60;;;;;;5092664;28;19923;-68
2022/12/09 14:55:26;;;;;;;;;;;17.30;61.60;;;;;;5090761;28;20003;-68
2022/12/09 14:57:54;;;;;;;;;;;17.30;62.30;;;;;;5093780;28;20404;-67
2022/12/09 15:00:27;;;;;;;;;;;17.30;61.50;;;;;;5093470;28;19908;-69
2022/12/09 15:02:54;;;;;;;;;;;17.20;61.50;;;;;;5093917;28;20324;-69
2022/12/09 15:05:20;;;;;;;;;;;17.20;61.70;;;;;;5108288;28;19981;-66
2022/12/09 15:07:47;;;;;;;;;;;17.20;61.60;;;;;;5096669;28;20397;-66
2022/12/09 15:10:26;;;;;;;;;;;17.20;62.00;;;;;;5112262;28;19915;-66
2022/12/09 15:12:54;;;;;;;;;;;17.30;61.80;;;;;;5085314;28;19912;-66
2022/12/09 15:15:24;;;;;;;;;;;17.20;62.10;;;;;;5105375;28;19930;-66
2022/12/09 15:17:58;;;;;;;;;;;17.20;62.10;;;;;;5095432;28;19911;-66
2022/12/09 15:20:31;;;;;;;;;;;17.30;61.70;;;;;;5081381;28;20009;-66
2022/12/09 15:22:59;;;;;;;;;;;17.30;61.80;;;;;;5077664;28;19923;-66
2022/12/09 15:25:25;;;;;;;;;;;17.30;62.00;;;;;;5074221;28;20270;-66
2022/12/09 15:27:59;;;;;;;;;;;17.30;61.50;;;;;;5077965;28;20329;-66
2022/12/09 15:30:32;;;;;;;;;;;17.30;61.90;;;;;;5106144;28;19912;-66
2022/12/09 15:32:59;;;;;;;;;;;17.30;63.10;;;;;;5105291;28;19915;-65
2022/12/09 15:35:27;;;;;;;;;;;17.30;64.10;;;;;;5093469;28;20389;-66
2022/12/09 15:37:54;;;;;;;;;;;17.30;64.70;;;;;;5086416;28;19916;-66
2022/12/09 15:40:21;;;;;;;;;;;17.30;64.70;;;;;;5091710;28;19920;-69
2022/12/09 15:42:48;;;;;;;;;;;17.30;65.10;;;;;;5099607;28;19912;-66
2022/12/09 15:45:16;;;;;;;;;;;17.30;64.60;;;;;;5073844;28;19912;-66
2022/12/09 15:47:44;;;;;;;;;;;17.30;64.00;;;;;;5099985;28;19912;-66
2022/12/09 15:50:23;;;;;;;;;;;17.20;64.80;;;;;;5089190;28;20320;-66
2022/12/09 15:52:52;;;;;;;;;;;17.20;65.00;;;;;;5102393;28;19955;-66
2022/12/09 15:55:21;;;;;;;;;;;17.30;64.80;;;;;;5106242;28;19946;-66
2022/12/09 15:57:48;;;;;;;;;;;17.20;64.40;;;;;;5104036;28;19954;-67
2022/12/09 16:00:14;;;;;;;;;;;17.20;64.20;;;;;;5107113;28;19957;-66
2022/12/09 16:02:41;;;;;;;;;;;17.20;63.70;;;;;;5070761;28;20383;-66
2022/12/09 16:05:08;;;;;;;;;;;17.20;63.70;;;;;;5070893;28;19942;-66
2022/12/09 16:07:35;;;;;;;;;;;17.20;63.20;;;;;;5107588;28;20020;-70
2022/12/09 16:10:06;;;;;;;;;;;17.20;63.50;;;;;;5072894;28;20450;-69
2022/12/09 16:12:34;;;;;;;;;;;17.20;63.70;;;;;;5087009;28;20295;-67
2022/12/09 16:15:00;;;;;;;;;;;17.30;63.30;;;;;;5093448;28;19973;-66
2022/12/09 16:17:28;;;;;;;;;;;17.20;62.90;;;;;;5073495;28;19919;-66
2022/12/09 16:19:55;;;;;;;;;;;17.20;63.20;;;;;;5101629;28;19912;-66
2022/12/09 16:22:28;;;;;;;;;;;17.20;62.90;;;;;;5082012;28;20366;-66
2022/12/09 16:24:55;;;;;;;;;;;17.20;63.20;;;;;;5098248;28;19923;-66
2022/12/09 16:27:22;;;;;;;;;;;17.20;63.80;;;;;;5097759;28;20400;-66
2022/12/09 16:30:00;;;;;;;;;;;17.20;63.90;;;;;;5087093;28;19915;-66
2022/12/09 16:32:29;;;;;;;;;;;17.10;63.80;;;;;;5087092;28;19919;-67
2022/12/09 16:34:59;;;;;;;;;;;17.20;63.20;;;;;;5082524;28;20330;-66
2022/12/09 16:37:30;;;;;;;;;;;17.20;63.30;;;;;;5085759;28;20105;-68
2022/12/09 16:39:57;;;;;;;;;;;17.20;62.60;;;;;;5086240;28;19917;-66
2022/12/09 16:42:27;;;;;;;;;;;17.20;62.30;;;;;;5091663;28;19946;-66
2022/12/09 16:45:13;;;;;;;;;;;17.20;62.60;;;;;;5090045;28;20006;-67
2022/12/09 16:47:40;;;;;;;;;;;17.20;62.20;;;;;;5082997;28;19920;-66
2022/12/09 16:50:07;;;;;;;;;;;17.20;62.20;;;;;;5083946;28;19920;-67
2022/12/09 16:52:34;;;;;;;;;;;17.30;62.00;;;;;;5091455;28;20030;-66
2022/12/09 16:55:01;;;;;;;;;;;17.30;61.80;;;;;;5089477;28;19928;-66
2022/12/09 16:57:28;;;;;;;;;;;17.20;61.70;;;;;;5073792;28;19924;-67
2022/12/09 16:59:54;;;;;;;;;;;17.20;61.80;;;;;;5086600;28;20336;-66
2022/12/09 17:02:26;;;;;;;;;;;17.20;61.80;;;;;;5091133;28;19904;-67
2022/12/09 17:04:53;;;;;;;;;;;17.20;62.00;;;;;;5072853;28;19920;-67
2022/12/09 17:07:20;;;;;;;;;;;17.20;61.40;;;;;;5092001;28;19913;-68
2022/12/09 17:09:47;;;;;;;;;;;17.20;61.10;;;;;;5088662;28;19948;-67
2022/12/09 17:12:13;;;;;;;;;;;17.20;61.10;;;;;;5079428;28;20255;-68
2022/12/09 17:14:40;;;;;;;;;;;17.20;61.20;;;;;;5111856;28;19915;-69
2022/12/09 17:17:06;;;;;;;;;;;17.20;60.70;;;;;;5101860;28;20305;-68
2022/12/09 17:19:33;;;;;;;;;;;17.20;60.50;;;;;;5113907;28;19965;-68
2022/12/09 17:22:00;;;;;;;;;;;17.20;60.70;;;;;;5081729;28;19916;-68
2022/12/09 17:24:26;;;;;;;;;;;17.20;61.50;;;;;;5095868;28;19966;-69
2022/12/09 17:26:53;;;;;;;;;;;17.20;61.90;;;;;;5081686;28;19923;-68
2022/12/09 17:29:19;;;;;;;;;;;17.20;62.50;;;;;;5090845;28;19973;-70
2022/12/09 17:31:48;;;;;;;;;;;17.20;63.20;;;;;;5094799;28;20350;-68
2022/12/09 17:34:15;;;;;;;;;;;17.20;64.20;;;;;;5093629;28;19911;-69
2022/12/09 17:36:42;;;;;;;;;;;17.20;63.80;;;;;;5097283;28;19912;-68
2022/12/09 17:39:09;;;;;;;;;;;17.20;64.30;;;;;;5099960;28;20366;-68
2022/12/09 17:41:35;;;;;;;;;;;17.20;63.70;;;;;;5095649;28;19919;-69
2022/12/09 17:44:02;;;;;;;;;;;17.20;64.20;;;;;;5092465;28;20373;-68
2022/12/09 17:46:28;;;;;;;;;;;17.20;63.20;;;;;;5088331;28;19912;-69
2022/12/09 17:48:55;;;;;;;;;;;17.20;63.50;;;;;;5090957;28;20268;-69
2022/12/09 17:51:22;;;;;;;;;;;17.20;63.50;;;;;;5092198;28;19929;-69
2022/12/09 17:53:49;;;;;;;;;;;17.20;64.00;;;;;;5087463;28;20431;-69
2022/12/09 18:24:03;;;;;;;;;;;17.20;64.20;;;;;;5092778;28;20329;-66
2022/12/09 18:26:30;;;;;;;;;;;17.30;64.70;;;;;;5090272;28;19924;-67
2022/12/09 18:28:56;;;;;;;;;;;17.20;65.00;;;;;;5090089;28;19912;-67
2022/12/09 18:31:25;;;;;;;;;;;17.20;65.10;;;;;;5109871;28;19912;-68
2022/12/09 18:33:52;;;;;;;;;;;17.20;65.40;;;;;;5098200;28;19908;-68
2022/12/09 18:36:20;;;;;;;;;;;17.20;65.50;;;;;;5100679;28;19927;-68
2022/12/09 18:38:46;;;;;;;;;;;17.20;65.80;;;;;;5099909;28;19939;-68
2022/12/09 18:41:15;;;;;;;;;;;17.20;65.80;;;;;;5093709;28;19912;-68
2022/12/09 18:43:42;;;;;;;;;;;17.20;66.10;;;;;;5103512;28;19920;-68
2022/12/09 18:46:12;;;;;;;;;;;17.10;66.50;;;;;;5084105;28;19908;-68
2022/12/09 18:48:38;;;;;;;;;;;17.10;66.50;;;;;;5097969;28;19959;-67
2022/12/09 18:51:08;;;;;;;;;;;17.10;66.40;;;;;;5102030;28;19912;-68
2022/12/09 18:53:35;;;;;;;;;;;17.10;66.90;;;;;;5102355;28;19914;-68
2022/12/09 18:56:04;;;;;;;;;;;17.00;67.20;;;;;;5102537;28;20030;-68
2022/12/09 18:58:31;;;;;;;;;;;17.00;68.90;;;;;;5094883;28;19909;-67
2022/12/09 19:00:57;;;;;;;;;;;16.90;69.70;;;;;;5109687;28;19908;-67
2022/12/09 19:03:24;;;;;;;;;;;16.80;70.90;;;;;;5095935;28;19916;-68
2022/12/09 19:05:51;;;;;;;;;;;16.70;74.00;;;;;;5102039;28;19916;-67
2022/12/09 19:08:17;;;;;;;;;;;16.50;74.60;;;;;;5102650;28;19908;-67
2022/12/09 19:10:52;;;;;;;;;;;16.40;75.80;;;;;;5097504;28;19912;-68
2022/12/09 19:13:18;;;;;;;;;;;16.30;76.90;;;;;;5092952;28;19916;-68
2022/12/09 19:15:45;;;;;;;;;;;16.20;77.60;;;;;;5094379;28;19916;-68
2022/12/09 19:18:13;;;;;;;;;;;16.20;77.00;;;;;;5093366;28;19970;-68
2022/12/09 19:20:39;;;;;;;;;;;16.20;76.70;;;;;;5094493;28;20010;-67
2022/12/09 19:23:07;;;;;;;;;;;16.30;76.80;;;;;;5092567;28;19912;-67
2022/12/09 19:25:38;;;;;;;;;;;16.30;76.20;;;;;;5090975;28;20285;-68
2022/12/09 19:28:05;;;;;;;;;;;16.30;75.80;;;;;;5101892;27;19919;-69
2022/12/09 19:30:31;;;;;;;;;;;16.30;75.50;;;;;;5101528;28;20400;-69
2022/12/09 19:32:58;;;;;;;;;;;16.30;75.00;;;;;;5090261;28;19955;-69
2022/12/09 19:35:24;;;;;;;;;;;16.30;74.80;;;;;;5092252;28;20300;-68
2022/12/09 19:37:51;;;;;;;;;;;16.40;74.40;;;;;;5100290;28;19912;-68
2022/12/09 19:40:18;;;;;;;;;;;16.40;74.00;;;;;;5102612;28;20498;-68
2022/12/09 19:42:44;;;;;;;;;;;16.40;73.90;;;;;;5092532;28;20320;-68
2022/12/09 19:45:11;;;;;;;;;;;16.40;73.30;;;;;;5108166;28;19916;-68
2022/12/09 19:47:37;;;;;;;;;;;16.50;73.60;;;;;;5109112;28;19914;-68
2022/12/09 19:50:04;;;;;;;;;;;16.50;71.70;;;;;;5104260;28;19969;-68
2022/12/09 19:52:31;;;;;;;;;;;16.60;71.10;;;;;;5102174;28;19912;-68
